Time;durP1;ratioP1;P1;durP2;ratioP2;P2;SDS_P1;SDS_P2;PMS_P1;PMS_P2;Temp;Humidity;BMP_temperature;BMP_pressure;BME280_temperature;BME280_humidity;BME280_pressure;Samples;Min_cycle;Max_cycle;Signal;HPM_P1;HPM_P2
2023/01/26 00:01:00;;;;;;;1999.90;999.90;;;7.00;99.90;;;;;;4935499;29;20043;-88
2023/01/26 00:03:26;;;;;;;1999.90;999.90;;;5.80;99.90;;;;;;4937371;29;20278;-87
2023/01/26 00:05:52;;;;;;;1999.90;999.90;;;;;;;;;;4936608;29;20052;-86
2023/01/26 00:08:18;;;;;;;1999.90;999.90;;;8.00;99.90;;;;;;4952080;28;20063;-86
2023/01/26 00:10:49;;;;;;;1999.90;889.33;;;5.00;99.90;;;;;;4940837;28;20047;-85
2023/01/26 00:13:21;;;;;;;1999.90;999.90;;;6.60;99.90;;;;;;4948167;29;20480;-86
2023/01/26 00:15:47;;;;;;;1999.90;999.90;;;8.40;99.90;;;;;;4937289;29;20052;-87
2023/01/26 00:18:13;;;;;;;1999.90;999.90;;;7.50;99.90;;;;;;4934423;29;20506;-87
2023/01/26 00:20:39;;;;;;;1999.90;999.90;;;7.10;99.90;;;;;;4954503;28;20043;-86
2023/01/26 00:23:05;;;;;;;1999.90;999.90;;;6.90;99.90;;;;;;4955175;29;20460;-86
2023/01/26 00:25:31;;;;;;;1999.90;999.90;;;7.20;99.90;;;;;;4956046;28;20043;-86
2023/01/26 00:27:56;;;;;;;1999.90;999.90;;;7.00;99.90;;;;;;4947510;29;20051;-86
2023/01/26 00:30:22;;;;;;;1999.90;990.70;;;6.50;99.90;;;;;;4949441;29;20105;-86
2023/01/26 00:32:48;;;;;;;1999.90;999.90;;;6.50;99.90;;;;;;4950726;28;20059;-86
2023/01/26 00:35:14;;;;;;;1999.90;999.90;;;7.10;99.90;;;;;;4951519;28;20058;-86
2023/01/26 00:37:43;;;;;;;1999.90;993.97;;;6.20;99.90;;;;;;4965913;28;20122;-86
2023/01/26 00:40:09;;;;;;;1999.90;999.90;;;8.60;99.90;;;;;;4953780;29;20098;-87
2023/01/26 00:42:35;;;;;;;1999.90;973.17;;;7.00;99.90;;;;;;4955019;29;20062;-86
2023/01/26 00:45:01;;;;;;;1999.90;999.90;;;7.10;99.90;;;;;;4954461;28;20143;-86
2023/01/26 00:47:26;;;;;;;1999.90;999.90;;;6.50;99.90;;;;;;4954631;28;20043;-87
2023/01/26 00:49:52;;;;;;;1999.90;947.93;;;;;;;;;;4930974;29;20043;-86
2023/01/26 00:52:18;;;;;;;1999.90;999.90;;;8.30;99.90;;;;;;4954819;28;20053;-88
2023/01/26 00:54:44;;;;;;;1999.90;999.90;;;6.40;99.90;;;;;;4938429;29;20054;-86
2023/01/26 00:57:10;;;;;;;1999.90;999.90;;;8.60;99.90;;;;;;4954587;29;20107;-85
2023/01/26 00:59:36;;;;;;;1999.90;999.90;;;8.70;99.90;;;;;;4955075;29;20087;-85
2023/01/26 01:02:01;;;;;;;1999.90;804.58;;;6.80;99.90;;;;;;4953157;28;20047;-85
2023/01/26 01:04:30;;;;;;;1999.90;999.90;;;6.20;99.90;;;;;;4951460;28;20047;-86
2023/01/26 01:06:57;;;;;;;1999.90;999.90;;;;;;;;;;4944081;28;20127;-87
2023/01/26 01:09:23;;;;;;;1999.90;999.90;;;6.90;99.90;;;;;;4965546;28;20047;-87
2023/01/26 01:11:49;;;;;;;1999.90;999.90;;;6.00;99.90;;;;;;4944717;28;20071;-86
2023/01/26 01:14:15;;;;;;;1999.90;999.90;;;8.70;99.90;;;;;;4934823;29;20055;-87
2023/01/26 01:16:42;;;;;;;1999.90;999.90;;;9.00;99.90;;;;;;4934597;29;20051;-87
2023/01/26 01:19:11;;;;;;;1999.90;999.90;;;7.70;99.90;;;;;;4936084;29;20043;-88
2023/01/26 01:21:37;;;;;;;1999.90;999.90;;;6.10;99.90;;;;;;4942219;28;20078;-86
2023/01/26 01:24:03;;;;;;;1999.90;999.90;;;6.20;99.90;;;;;;4952919;29;20055;-87
2023/01/26 01:26:29;;;;;;;1999.90;957.57;;;6.50;99.90;;;;;;4954613;29;20176;-87
2023/01/26 01:28:55;;;;;;;1999.90;999.90;;;9.50;99.90;;;;;;4953651;29;20147;-86
2023/01/26 01:31:21;;;;;;;1999.90;999.90;;;8.40;99.90;;;;;;4953113;28;20094;-87
2023/01/26 01:33:46;;;;;;;1999.90;999.90;;;7.10;99.90;;;;;;4934819;29;20121;-87
2023/01/26 01:36:14;;;;;;;1999.90;999.90;;;8.00;99.90;;;;;;4934715;29;20104;-88
2023/01/26 01:38:41;;;;;;;1999.90;999.90;;;7.90;99.90;;;;;;4936326;29;20056;-87
2023/01/26 01:41:07;;;;;;;1999.90;999.90;;;5.70;99.90;;;;;;4947556;28;20315;-88
2023/01/26 01:43:34;;;;;;;1999.90;999.90;;;6.90;99.90;;;;;;4945204;28;20172;-89
2023/01/26 01:46:01;;;;;;;1999.90;999.90;;;7.70;99.90;;;;;;4959296;28;20093;-91
2023/01/26 01:48:37;;;;;;;1999.90;999.90;;;6.90;99.90;;;;;;4928391;28;20083;-91
2023/01/26 01:51:40;;;;;;;1999.90;999.90;;;6.50;99.90;;;;;;4944439;28;20043;-92
2023/01/26 01:54:29;;;;;;;1999.90;999.90;;;;;;;;;;4951269;29;20074;-92
2023/01/26 01:57:43;;;;;;;1999.90;999.90;;;7.60;99.90;;;;;;4952332;29;20051;-92
2023/01/26 02:04:32;;;;;;;1999.90;999.90;;;7.10;99.90;;;;;;4893009;29;20052;-93
2023/01/26 02:07:50;;;;;;;1999.90;999.90;;;6.60;99.90;;;;;;4918291;29;20551;-93
2023/01/26 02:31:01;;;;;;;;;;;;;;;;;;;;;
2023/01/26 03:00:45;;;;;;;;;;;;;;;;;;;;;
2023/01/26 03:07:15;;;;;;;1999.90;999.90;;;;;;;;;;4863263;29;20065;-94
2023/01/26 03:09:54;;;;;;;1999.90;999.90;;;;;;;;;;4861966;29;20518;-93
2023/01/26 03:12:22;;;;;;;1999.90;999.90;;;6.60;99.90;;;;;;4865778;29;20057;-92
2023/01/26 03:15:41;;;;;;;1999.90;999.90;;;7.40;99.90;;;;;;4911388;29;20103;-91
2023/01/26 03:17:50;;;;;;;1999.90;999.90;;;6.70;99.90;;;;;;4896169;29;20052;-91
2023/01/26 03:28:35;;;;;;;1999.90;999.90;;;6.80;99.90;;;;;;4909208;29;20263;-89
2023/01/26 03:31:05;;;;;;;1999.90;999.90;;;8.20;99.90;;;;;;4910232;29;20044;-88
2023/01/26 03:33:31;;;;;;;1999.90;999.90;;;5.60;99.90;;;;;;4907923;29;20071;-88
2023/01/26 03:35:56;;;;;;;1999.90;999.90;;;7.40;99.90;;;;;;4891142;29;20493;-88
2023/01/26 03:38:22;;;;;;;1999.90;999.90;;;7.10;99.90;;;;;;4906221;29;20118;-87
2023/01/26 03:57:13;;;;;;;1999.90;999.90;;;6.40;99.90;;;;;;4916164;29;20056;-88
2023/01/26 03:59:39;;;;;;;1999.90;999.90;;;6.40;99.90;;;;;;4915702;29;20460;-86
2023/01/26 04:10:24;;;;;;;1999.90;999.90;;;6.30;99.90;;;;;;4953881;29;20405;-89
2023/01/26 04:23:56;;;;;;;1999.90;999.90;;;6.50;99.90;;;;;;4941119;29;20090;-87
2023/01/26 04:26:23;;;;;;;1999.90;999.90;;;6.50;99.90;;;;;;4939745;29;20400;-86
2023/01/26 04:28:49;;;;;;;1999.90;999.90;;;5.40;99.90;;;;;;4954462;29;20047;-86
2023/01/26 04:31:15;;;;;;;1999.90;999.90;;;6.50;99.90;;;;;;4942055;29;20067;-85
2023/01/26 04:33:42;;;;;;;1999.90;999.90;;;4.60;99.90;;;;;;4958219;28;20039;-84
2023/01/26 04:36:08;;;;;;;1999.90;999.90;;;8.40;99.90;;;;;;4954915;29;20058;-85
2023/01/26 04:38:34;;;;;;;1999.90;999.90;;;6.60;99.90;;;;;;4955377;28;20166;-85
2023/01/26 04:41:00;;;;;;;1999.90;999.90;;;7.60;99.90;;;;;;4955042;28;20086;-84
2023/01/26 04:43:26;;;;;;;1999.90;999.90;;;7.60;99.90;;;;;;4955929;29;20059;-85
2023/01/26 04:46:06;;;;;;;1999.90;999.90;;;6.60;99.90;;;;;;4948588;29;20422;-84
2023/01/26 04:48:33;;;;;;;1999.90;999.90;;;6.00;99.90;;;;;;4942830;28;20534;-91
2023/01/26 04:51:03;;;;;;;1999.90;999.90;;;6.30;99.90;;;;;;4949895;28;20405;-84
2023/01/26 04:53:31;;;;;;;1999.90;999.90;;;6.10;99.90;;;;;;4954689;28;20386;-85
2023/01/26 04:55:57;;;;;;;1999.90;999.90;;;6.70;99.90;;;;;;4951632;28;20065;-87
2023/01/26 04:58:23;;;;;;;1999.90;999.90;;;;;;;;;;4953619;28;20043;-85
2023/01/26 05:00:51;;;;;;;1999.90;999.90;;;6.00;99.90;;;;;;4953634;28;20047;-85
2023/01/26 05:03:17;;;;;;;1999.90;999.90;;;7.60;99.90;;;;;;4950886;28;20043;-85
2023/01/26 05:05:42;;;;;;;1999.90;999.90;;;6.20;99.90;;;;;;4949221;28;20081;-86
2023/01/26 05:08:08;;;;;;;1999.90;999.90;;;4.10;99.90;;;;;;4947910;28;20067;-86
2023/01/26 05:10:34;;;;;;;1999.90;999.90;;;6.40;99.90;;;;;;4944229;29;20054;-86
2023/01/26 05:12:59;;;;;;;1999.90;999.90;;;8.10;99.90;;;;;;4950024;28;20114;-85
2023/01/26 05:15:25;;;;;;;1999.90;999.90;;;8.90;99.90;;;;;;4953655;28;20086;-87
2023/01/26 05:17:51;;;;;;;1999.90;999.90;;;6.90;99.90;;;;;;4959129;29;20543;-87
2023/01/26 05:20:17;;;;;;;1999.90;999.90;;;7.70;99.90;;;;;;4966027;29;20039;-88
2023/01/26 05:22:43;;;;;;;1999.90;999.90;;;5.20;99.90;;;;;;4954592;28;20050;-87
2023/01/26 05:25:09;;;;;;;1999.90;999.90;;;6.40;99.90;;;;;;4967211;28;20051;-87
2023/01/26 05:27:35;;;;;;;1999.90;999.90;;;6.60;99.90;;;;;;4966562;28;20047;-85
2023/01/26 05:30:01;;;;;;;1999.90;999.90;;;7.10;99.90;;;;;;4967247;29;20086;-85
2023/01/26 05:32:30;;;;;;;1999.90;999.90;;;7.60;99.90;;;;;;4965991;28;20109;-88
2023/01/26 05:34:56;;;;;;;1999.90;999.90;;;6.50;99.90;;;;;;4955403;28;20458;-91
2023/01/26 05:37:27;;;;;;;1999.90;999.90;;;8.10;99.90;;;;;;4950459;28;20501;-88
2023/01/26 05:39:53;;;;;;;1999.90;999.90;;;5.10;99.90;;;;;;4950610;28;20043;-87
2023/01/26 05:42:18;;;;;;;1999.90;999.90;;;7.00;99.90;;;;;;4951782;28;20050;-88
2023/01/26 05:44:44;;;;;;;1999.90;999.90;;;6.10;99.90;;;;;;4951161;29;20047;-90
2023/01/26 05:47:10;;;;;;;1999.90;999.90;;;6.10;99.90;;;;;;4949116;28;20074;-90
2023/01/26 05:49:40;;;;;;;1999.90;999.90;;;6.10;99.90;;;;;;4948577;28;20457;-90
2023/01/26 05:52:09;;;;;;;1999.90;999.90;;;6.20;99.90;;;;;;4950919;28;20074;-89
2023/01/26 05:54:35;;;;;;;1999.90;999.90;;;8.20;99.90;;;;;;4951183;28;20047;-89
2023/01/26 05:57:02;;;;;;;1999.90;999.90;;;7.40;99.90;;;;;;4951208;29;20043;-90
2023/01/26 05:59:27;;;;;;;1999.90;999.90;;;6.50;99.90;;;;;;4950539;29;20043;-90
2023/01/26 06:01:57;;;;;;;1999.90;999.90;;;7.60;99.90;;;;;;4950711;28;20102;-92
2023/01/26 06:04:23;;;;;;;1999.90;999.90;;;4.90;99.90;;;;;;4926218;28;20050;-90
2023/01/26 06:06:52;;;;;;;1999.90;999.90;;;6.20;99.90;;;;;;4945443;28;20493;-90
2023/01/26 06:09:19;;;;;;;1999.90;999.90;;;;;;;;;;4940362;28;20071;-90
2023/01/26 06:11:45;;;;;;;1999.90;999.90;;;6.60;99.90;;;;;;4930828;29;20389;-91
2023/01/26 06:14:11;;;;;;;1999.90;999.90;;;4.60;99.90;;;;;;4931555;29;20051;-89
2023/01/26 06:16:37;;;;;;;1999.90;999.90;;;6.70;99.90;;;;;;4945776;28;20043;-93
2023/01/26 06:19:03;;;;;;;1999.90;999.90;;;8.60;99.90;;;;;;4951100;29;20059;-88
2023/01/26 06:21:30;;;;;;;1999.90;999.90;;;6.40;99.90;;;;;;4943727;28;20066;-89
2023/01/26 06:23:56;;;;;;;1999.90;999.90;;;7.60;99.90;;;;;;4929896;29;20043;-88
2023/01/26 06:26:25;;;;;;;1999.90;999.90;;;8.50;99.90;;;;;;4953193;29;20053;-88
2023/01/26 06:28:51;;;;;;;1999.90;999.90;;;7.00;99.90;;;;;;4951949;28;20043;-88
2023/01/26 06:31:17;;;;;;;1999.90;999.90;;;7.20;99.90;;;;;;4951083;29;20400;-88
2023/01/26 06:33:43;;;;;;;1999.90;999.90;;;8.30;99.90;;;;;;4953241;28;20047;-89
2023/01/26 06:36:11;;;;;;;1999.90;999.90;;;6.10;99.90;;;;;;4952082;28;20098;-88
2023/01/26 06:38:37;;;;;;;;;;;6.50;99.90;;;;;;4935716;29;20125;-88
2023/01/26 06:41:08;;;;;;;1999.90;999.90;;;6.20;99.90;;;;;;4951580;29;19922;-88
2023/01/26 06:43:35;;;;;;;1999.90;999.90;;;6.50;99.90;;;;;;4953018;29;20408;-89
2023/01/26 06:46:02;;;;;;;1999.90;999.90;;;7.90;99.90;;;;;;4945204;28;20055;-90
2023/01/26 06:48:30;;;;;;;1999.90;999.90;;;4.60;99.90;;;;;;4962693;28;20412;-86
2023/01/26 06:50:57;;;;;;;1999.90;999.90;;;6.30;99.90;;;;;;4953554;28;20059;-89
2023/01/26 06:53:41;;;;;;;1999.90;999.90;;;6.10;99.90;;;;;;4951539;29;20047;-88
2023/01/26 06:56:07;;;;;;;1999.90;999.90;;;6.60;99.90;;;;;;4951769;29;20504;-88
2023/01/26 06:58:33;;;;;;;1999.90;999.90;;;;;;;;;;4935726;28;20127;-87
2023/01/26 07:00:59;;;;;;;1999.90;999.90;;;6.50;99.90;;;;;;4935945;28;20101;-89
2023/01/26 07:03:25;;;;;;;1999.90;999.90;;;6.30;99.90;;;;;;4942636;28;20146;-88
2023/01/26 07:05:51;;;;;;;1999.90;999.90;;;7.20;99.90;;;;;;4926019;29;20126;-88
2023/01/26 07:08:16;;;;;;;1999.90;999.90;;;7.70;99.90;;;;;;4933287;29;20453;-88
2023/01/26 07:10:42;;;;;;;1999.90;999.90;;;6.80;99.90;;;;;;4918032;29;20075;-87
2023/01/26 07:13:08;;;;;;;1999.90;999.90;;;6.60;99.90;;;;;;4933318;29;20127;-88
2023/01/26 07:15:34;;;;;;;1999.90;999.90;;;6.70;99.90;;;;;;4957706;28;20043;-88
2023/01/26 07:18:00;;;;;;;1999.90;999.90;;;5.60;99.90;;;;;;4948201;29;20098;-87
2023/01/26 07:20:26;;;;;;;1999.90;999.90;;;4.50;99.90;;;;;;4955991;28;20051;-88
2023/01/26 07:22:52;;;;;;;1999.90;999.90;;;7.30;99.90;;;;;;4939769;29;20066;-88
2023/01/26 07:25:18;;;;;;;1999.90;999.90;;;6.70;99.90;;;;;;4955589;29;20051;-88
2023/01/26 07:27:44;;;;;;;1999.90;999.90;;;8.10;99.90;;;;;;4940246;29;20043;-88
2023/01/26 07:30:13;;;;;;;1999.90;999.90;;;7.00;99.90;;;;;;4955538;28;20190;-89
2023/01/26 07:32:39;;;;;;;1999.90;999.90;;;6.50;99.90;;;;;;4940438;29;20043;-87
2023/01/26 07:35:06;;;;;;;1999.90;999.90;;;5.50;99.90;;;;;;4955059;29;20051;-87
2023/01/26 07:37:32;;;;;;;1999.90;999.90;;;;;;;;;;4955785;29;20058;-88
2023/01/26 07:39:58;;;;;;;1999.90;999.90;;;7.00;99.90;;;;;;4939923;29;20055;-88
2023/01/26 07:42:24;;;;;;;1999.90;999.90;;;7.30;99.90;;;;;;4956095;28;20106;-87
2023/01/26 07:44:49;;;;;;;1999.90;999.90;;;6.30;99.90;;;;;;4939509;29;20043;-87
2023/01/26 07:47:15;;;;;;;1999.90;999.90;;;6.40;99.90;;;;;;4955326;28;20130;-86
2023/01/26 07:49:41;;;;;;;1999.90;999.90;;;6.80;99.90;;;;;;4939896;29;20066;-87
2023/01/26 07:52:08;;;;;;;1999.90;999.90;;;7.80;99.90;;;;;;4955529;29;20051;-87
2023/01/26 07:54:34;;;;;;;1999.90;999.90;;;;;;;;;;4956874;28;20058;-87
2023/01/26 07:56:59;;;;;;;1999.90;999.90;;;7.40;99.90;;;;;;4938831;29;20047;-86
2023/01/26 07:59:25;;;;;;;1999.90;999.90;;;6.10;99.90;;;;;;4939944;29;20058;-86
2023/01/26 08:01:51;;;;;;;1999.90;999.90;;;6.50;99.90;;;;;;4955516;28;20396;-87
2023/01/26 08:04:17;;;;;;;1999.90;999.90;;;4.80;99.90;;;;;;4920441;29;20127;-87
2023/01/26 08:06:43;;;;;;;1999.90;999.90;;;;;;;;;;4948834;28;22000;-87
2023/01/26 08:09:09;;;;;;;1999.90;999.90;;;6.10;99.90;;;;;;4954850;29;20055;-86
2023/01/26 08:11:35;;;;;;;1999.90;999.90;;;6.10;99.90;;;;;;4939676;29;20062;-87
2023/01/26 08:14:01;;;;;;;1999.90;999.90;;;6.10;99.90;;;;;;4955356;28;20051;-86
2023/01/26 08:16:27;;;;;;;1999.90;999.90;;;6.80;99.90;;;;;;4954596;28;20047;-87
2023/01/26 08:18:52;;;;;;;1999.90;999.90;;;6.70;99.90;;;;;;4970939;28;20058;-87
2023/01/26 08:21:19;;;;;;;1999.90;999.90;;;8.10;99.90;;;;;;4954257;28;20059;-87
2023/01/26 08:23:51;;;;;;;1999.90;999.90;;;6.10;99.90;;;;;;4955070;28;20051;-87
2023/01/26 08:26:18;;;;;;;1999.90;999.90;;;5.20;99.90;;;;;;4948356;28;20048;-86
2023/01/26 08:28:44;;;;;;;1999.90;999.90;;;8.00;99.90;;;;;;4935571;29;20518;-86
2023/01/26 08:31:14;;;;;;;1999.90;999.90;;;7.20;99.90;;;;;;4943477;28;20313;-86
2023/01/26 08:33:42;;;;;;;1999.90;999.90;;;6.70;99.90;;;;;;4956273;28;20484;-86
2023/01/26 08:36:12;;;;;;;1999.90;999.90;;;6.90;99.90;;;;;;4951324;28;20126;-87
2023/01/26 08:38:37;;;;;;;1999.90;999.90;;;7.50;99.90;;;;;;4936749;29;20054;-87
2023/01/26 08:41:04;;;;;;;1999.90;999.90;;;6.20;99.90;;;;;;4939709;28;20050;-86
2023/01/26 08:43:30;;;;;;;1999.90;999.90;;;6.40;99.90;;;;;;4955113;28;20043;-86
2023/01/26 08:45:56;;;;;;;1999.90;999.90;;;6.90;99.90;;;;;;4922793;29;20091;-86
2023/01/26 08:48:22;;;;;;;1999.90;999.90;;;;;;;;;;4953872;28;20078;-86
2023/01/26 08:50:52;;;;;;;1999.90;999.90;;;6.80;99.90;;;;;;4955157;29;20051;-86
2023/01/26 08:53:17;;;;;;;1999.90;999.90;;;6.90;99.90;;;;;;4955633;29;20047;-86
2023/01/26 08:55:43;;;;;;;1999.90;999.90;;;6.80;99.90;;;;;;4955637;29;20082;-86
2023/01/26 08:58:09;;;;;;;1999.90;999.90;;;5.20;99.90;;;;;;4938396;29;20050;-87
2023/01/26 09:00:34;;;;;;;1999.90;999.90;;;7.20;99.90;;;;;;4955161;28;20043;-86
2023/01/26 09:03:02;;;;;;;1999.90;999.90;;;6.40;99.90;;;;;;4955553;28;20492;-87
2023/01/26 09:05:32;;;;;;;1999.90;999.90;;;7.40;99.90;;;;;;4955132;28;20091;-87
2023/01/26 09:07:57;;;;;;;1999.90;999.90;;;6.90;99.90;;;;;;4951944;28;20086;-88
2023/01/26 09:10:23;;;;;;;1999.90;999.90;;;7.70;99.90;;;;;;4950826;28;20093;-87
2023/01/26 09:12:49;;;;;;;1999.90;999.90;;;9.10;99.90;;;;;;4951568;28;20055;-87
2023/01/26 09:15:15;;;;;;;1999.90;999.90;;;6.10;99.90;;;;;;4934878;29;20047;-88
2023/01/26 09:17:41;;;;;;;1999.90;999.90;;;9.10;99.90;;;;;;4952644;29;20489;-88
2023/01/26 09:20:09;;;;;;;1999.90;999.90;;;8.20;99.90;;;;;;4938007;29;20051;-88
2023/01/26 09:22:34;;;;;;;1999.90;999.90;;;6.60;99.90;;;;;;4954106;28;20047;-88
2023/01/26 09:25:00;;;;;;;1999.90;999.90;;;7.30;99.90;;;;;;4938446;29;20366;-88
2023/01/26 09:27:26;;;;;;;1999.90;999.90;;;6.60;99.90;;;;;;4953582;28;20113;-88
2023/01/26 09:29:52;;;;;;;1999.90;999.90;;;;;;;;;;4934160;29;20083;-87
2023/01/26 09:32:19;;;;;;;1999.90;999.90;;;5.50;99.90;;;;;;4918981;29;20139;-88
2023/01/26 09:34:45;;;;;;;1999.90;999.90;;;6.90;99.90;;;;;;4935352;29;20555;-88
2023/01/26 09:37:10;;;;;;;1999.90;999.90;;;5.20;99.90;;;;;;4935698;29;20138;-88
2023/01/26 09:39:37;;;;;;;1999.90;999.90;;;;;;;;;;4949334;29;20392;-88
2023/01/26 09:49:58;;;;;;;1999.90;999.90;;;7.30;99.90;;;;;;4925826;29;20058;-87
2023/01/26 09:52:36;;;;;;;1999.90;999.90;;;6.80;99.90;;;;;;4934920;29;20043;-88
2023/01/26 09:55:05;;;;;;;1999.90;999.90;;;9.10;99.90;;;;;;4935001;29;20382;-87
2023/01/26 09:57:43;;;;;;;1999.90;999.90;;;8.30;99.90;;;;;;4934917;29;20052;-87
2023/01/26 10:00:43;;;;;;;1999.90;999.90;;;10.70;99.90;;;;;;4930610;29;20059;-94
2023/01/26 10:03:31;;;;;;;1999.90;999.90;;;7.70;99.90;;;;;;4934811;29;20079;-95
2023/01/26 10:06:06;;;;;;;1999.90;999.90;;;7.70;99.90;;;;;;4940577;28;20447;-87
2023/01/26 10:08:32;;;;;;;1999.90;999.90;;;9.00;99.90;;;;;;4938506;29;20051;-86
2023/01/26 10:11:06;;;;;;;1999.90;999.90;;;10.00;99.90;;;;;;4954333;28;20240;-85
2023/01/26 10:13:33;;;;;;;1999.90;999.90;;;9.10;99.90;;;;;;4955719;28;20064;-85
2023/01/26 10:16:04;;;;;;;1999.90;999.90;;;9.20;99.90;;;;;;4954554;28;20047;-85
2023/01/26 10:18:52;;;;;;;1999.90;999.90;;;10.00;99.90;;;;;;4955291;28;20039;-85
2023/01/26 10:21:21;;;;;;;1999.90;999.90;;;10.00;99.90;;;;;;4953925;28;20451;-85
2023/01/26 10:23:48;;;;;;;1999.90;999.90;;;10.40;99.90;;;;;;4953942;29;20055;-85
2023/01/26 10:26:19;;;;;;;1999.90;999.90;;;10.40;99.90;;;;;;4954892;29;20396;-85
2023/01/26 10:28:48;;;;;;;1999.90;999.90;;;10.70;99.90;;;;;;4954816;29;20043;-85
2023/01/26 10:31:23;;;;;;;1999.90;999.90;;;10.30;99.90;;;;;;4953589;28;20051;-85
2023/01/26 10:33:57;;;;;;;1999.90;989.63;;;11.20;99.90;;;;;;4953344;29;20051;-85
2023/01/26 10:36:23;;;;;;;1999.90;916.45;;;11.60;99.90;;;;;;4953557;28;20043;-87
2023/01/26 10:38:50;;;;;;;1999.90;839.28;;;11.50;99.90;;;;;;4936877;29;20059;-85
2023/01/26 10:41:21;;;;;;;1999.90;999.90;;;11.80;99.90;;;;;;4955018;29;20055;-85
2023/01/26 10:43:55;;;;;;;1999.90;999.90;;;12.00;99.90;;;;;;4953788;29;20085;-84
2023/01/26 10:46:23;;;;;;;1999.90;999.90;;;10.10;99.90;;;;;;4954622;28;20043;-84
2023/01/26 10:48:54;;;;;;;1999.90;999.90;;;11.80;99.90;;;;;;4937212;29;20492;-84
2023/01/26 10:51:32;;;;;;;1999.90;999.90;;;15.90;99.90;;;;;;4956861;28;20130;-85
2023/01/26 10:54:19;;;;;;;1999.90;999.90;;;11.90;99.90;;;;;;4957993;28;20054;-85
2023/01/26 10:56:59;;;;;;;1999.90;999.90;;;11.40;99.90;;;;;;4956931;29;20514;-85
2023/01/26 10:59:30;;;;;;;1999.90;999.90;;;11.00;99.90;;;;;;4955748;29;20489;-84
2023/01/26 11:02:18;;;;;;;1999.90;999.90;;;11.70;99.90;;;;;;4957582;28;20054;-84
2023/01/26 11:05:07;;;;;;;1999.90;999.90;;;11.40;99.90;;;;;;4940263;29;20066;-84
2023/01/26 11:07:39;;;;;;;1999.90;999.90;;;11.40;99.90;;;;;;4941097;29;20138;-84
2023/01/26 11:10:22;;;;;;;1999.90;999.90;;;11.30;99.90;;;;;;4939147;29;20295;-84
2023/01/26 11:12:49;;;;;;;1999.90;999.90;;;11.90;99.90;;;;;;4939612;29;20055;-84
2023/01/26 11:15:18;;;;;;;1999.90;999.90;;;11.40;99.90;;;;;;4938236;29;20051;-84
2023/01/26 11:18:06;;;;;;;1999.90;999.90;;;11.60;99.90;;;;;;4939404;29;20044;-84
2023/01/26 11:20:34;;;;;;;1999.90;999.90;;;11.70;99.90;;;;;;4954671;29;20043;-84
2023/01/26 11:23:12;;;;;;;1999.90;841.35;;;11.80;99.90;;;;;;4939387;29;20047;-84
2023/01/26 11:29:26;;;;;;;1999.90;999.90;;;12.00;99.90;;;;;;4939120;29;20059;-83
2023/01/26 11:32:17;;;;;;;1999.90;999.90;;;11.70;99.90;;;;;;4939335;29;20066;-83
2023/01/26 11:35:20;;;;;;;1999.90;493.25;;;12.60;99.90;;;;;;4939263;29;20044;-84
2023/01/26 11:38:23;;;;;;;1999.90;569.70;;;12.10;99.90;;;;;;4938764;29;20055;-83
2023/01/26 11:41:10;;;;;;;1999.90;872.70;;;11.90;99.90;;;;;;4938937;29;20051;-84
2023/01/26 11:44:06;;;;;;;1999.90;643.35;;;12.10;99.90;;;;;;4939009;29;20078;-84
2023/01/26 11:46:47;;;;;;;1999.90;999.90;;;12.30;99.90;;;;;;4938813;29;20059;-84
2023/01/26 11:49:33;;;;;;;1999.90;999.90;;;11.80;99.90;;;;;;4938933;29;20047;-84
2023/01/26 11:52:06;;;;;;;1999.90;999.90;;;11.80;99.90;;;;;;4938499;29;20501;-84
2023/01/26 11:58:19;;;;;;;1999.90;663.13;;;12.10;99.90;;;;;;4957766;29;20557;-84
2023/01/26 12:01:06;;;;;;;1999.90;999.90;;;12.00;99.90;;;;;;4957108;29;20126;-84
2023/01/26 12:03:48;;;;;;;1999.90;999.90;;;11.80;99.90;;;;;;4956238;29;20507;-84
2023/01/26 12:06:38;;;;;;;1999.90;661.80;;;12.20;99.90;;;;;;4940418;28;20095;-86
2023/01/26 12:09:19;;;;;;;1999.90;999.90;;;12.20;99.90;;;;;;4955867;29;20328;-86
2023/01/26 12:12:13;;;;;;;1999.90;614.40;;;12.80;99.90;;;;;;4967472;28;20472;-85
2023/01/26 12:14:48;;;;;;;1999.90;709.92;;;12.50;99.90;;;;;;4955373;29;20476;-87
2023/01/26 12:17:26;;;;;;;1999.90;703.03;;;12.30;99.90;;;;;;4951155;29;20488;-87
2023/01/26 12:20:24;;;;;;;1999.90;603.45;;;12.50;99.90;;;;;;4955798;28;20047;-85
2023/01/26 12:23:01;;;;;;;1999.90;485.08;;;12.10;99.90;;;;;;4953128;28;20051;-86
2023/01/26 12:25:37;;;;;;;1999.90;577.70;;;12.10;99.90;;;;;;4952296;28;20062;-86
2023/01/26 12:28:44;;;;;;;1999.90;693.35;;;12.50;99.90;;;;;;4952788;29;20587;-86
2023/01/26 12:31:37;;;;;;;1999.90;725.30;;;12.20;99.90;;;;;;4953272;28;20409;-87
2023/01/26 12:34:10;;;;;;;1999.90;605.55;;;12.70;99.90;;;;;;4957708;28;20051;-89
2023/01/26 12:36:48;;;;;;;1999.90;711.67;;;12.40;99.90;;;;;;4955611;29;20639;-88
2023/01/26 12:39:47;;;;;;;1999.90;936.22;;;10.40;99.90;;;;;;4956255;28;20539;-87
2023/01/26 12:42:40;;;;;;;1999.90;795.78;;;12.60;99.90;;;;;;4956235;28;20456;-88
2023/01/26 12:45:29;;;;;;;1999.90;528.97;;;12.30;99.90;;;;;;4936120;29;20508;-90
2023/01/26 12:48:02;;;;;;;1999.90;500.65;;;12.90;99.90;;;;;;4952399;29;20094;-90
2023/01/26 12:50:47;;;;;;;1999.90;665.67;;;12.50;99.90;;;;;;4951172;29;20122;-90
2023/01/26 12:53:29;;;;;;;1999.90;858.42;;;13.10;99.90;;;;;;4952403;29;20059;-91
2023/01/26 12:56:10;;;;;;;1999.90;419.83;;;13.00;99.90;;;;;;4937245;29;20050;-91
2023/01/26 12:58:43;;;;;;;1999.90;620.65;;;13.20;99.90;;;;;;4954625;28;20059;-92
2023/01/26 13:01:17;;;;;;;1999.90;914.75;;;13.30;99.90;;;;;;4938444;29;20411;-93
2023/01/26 13:03:54;;;;;;;1999.90;335.80;;;12.80;99.90;;;;;;4951853;29;20047;-93
2023/01/26 13:06:28;;;;;;;1999.90;865.58;;;12.70;99.90;;;;;;4942640;29;20115;-94
2023/01/26 13:08:59;;;;;;;1999.90;627.95;;;;;;;;;;4945020;28;20055;-93
2023/01/26 13:11:40;;;;;;;1999.90;343.27;;;;;;;;;;4937604;29;20133;-92
2023/01/26 13:14:25;;;;;;;1999.90;351.92;;;12.60;99.90;;;;;;4936417;29;20075;-93
2023/01/26 13:17:26;;;;;;;1999.90;572.42;;;13.20;99.90;;;;;;4920491;28;20134;-93
2023/01/26 13:20:22;;;;;;;1999.90;914.53;;;13.20;99.90;;;;;;4929510;29;20039;-92
2023/01/26 13:23:14;;;;;;;1999.90;391.33;;;13.30;99.90;;;;;;4946553;28;20134;-92
2023/01/26 13:25:51;;;;;;;1999.90;576.17;;;;;;;;;;4922793;29;20128;-91
2023/01/26 13:28:29;;;;;;;1999.90;650.40;;;12.60;99.90;;;;;;4931596;29;20079;-90
2023/01/26 13:31:25;;;;;;;1999.90;999.90;;;12.60;99.90;;;;;;4951995;29;20111;-90
2023/01/26 13:33:51;;;;;;;1999.90;676.80;;;12.90;99.90;;;;;;4931550;29;20047;-89
2023/01/26 13:36:28;;;;;;;1999.90;782.30;;;13.10;99.90;;;;;;4953636;28;20044;-89
2023/01/26 13:39:00;;;;;;;1734.70;521.55;;;13.20;99.90;;;;;;4937160;29;20381;-89
2023/01/26 13:41:26;;;;;;;1847.53;302.15;;;12.70;99.90;;;;;;4936339;29;20062;-93
2023/01/26 13:44:04;;;;;;;1999.90;785.25;;;10.60;99.90;;;;;;4953083;28;20059;-89
2023/01/26 13:46:44;;;;;;;1999.90;943.38;;;12.10;99.90;;;;;;4937196;29;20057;-88
2023/01/26 13:49:25;;;;;;;1999.90;194.70;;;13.00;99.90;;;;;;4938602;28;20126;-89
2023/01/26 13:51:54;;;;;;;1999.90;267.98;;;13.00;99.90;;;;;;4951017;28;20149;-88
2023/01/26 13:54:21;;;;;;;1828.47;200.60;;;12.50;99.90;;;;;;4954100;28;20050;-88
2023/01/26 13:57:05;;;;;;;1999.90;254.95;;;12.40;99.90;;;;;;4969315;28;20395;-88
2023/01/26 13:59:32;;;;;;;1999.90;999.90;;;13.00;99.90;;;;;;4953449;29;20047;-89
2023/01/26 14:01:58;;;;;;;1346.80;123.80;;;12.80;99.90;;;;;;4952583;28;20070;-88
2023/01/26 14:04:27;;;;;;;1999.90;891.88;;;11.30;99.90;;;;;;4969693;28;20047;-87
2023/01/26 14:07:11;;;;;;;1929.78;802.55;;;12.70;99.90;;;;;;4952835;28;20138;-88
2023/01/26 14:09:57;;;;;;;1999.90;893.30;;;12.20;99.90;;;;;;4965647;28;20565;-87
2023/01/26 14:12:26;;;;;;;1644.75;755.28;;;12.60;99.90;;;;;;4936374;29;20459;-87
2023/01/26 14:14:59;;;;;;;1999.90;999.90;;;12.70;99.90;;;;;;4953727;28;20438;-87
2023/01/26 14:17:45;;;;;;;1963.82;771.65;;;12.60;99.90;;;;;;4942762;28;20059;-86
2023/01/26 14:20:29;;;;;;;1999.90;974.05;;;12.70;99.90;;;;;;4934287;29;20393;-87
2023/01/26 14:23:21;;;;;;;1324.00;72.38;;;12.70;99.90;;;;;;4937066;29;20223;-86
2023/01/26 14:26:00;;;;;;;1807.53;760.50;;;12.20;99.90;;;;;;4949369;28;20512;-87
2023/01/26 14:28:30;;;;;;;1897.00;787.40;;;12.60;99.90;;;;;;4954231;28;20053;-86
2023/01/26 14:31:24;;;;;;;1920.65;770.03;;;12.50;99.90;;;;;;4953038;29;20055;-86